createdAt,value
2023-04-02T00:05:41.051Z,36.4
2023-04-02T00:11:46.240Z,36.4
2023-04-02T00:17:51.776Z,36.4
2023-04-02T00:23:57.292Z,36.4
2023-04-02T00:30:03.080Z,36.4
2023-04-02T00:36:09.312Z,36.4
2023-04-02T00:42:14.622Z,36.4
2023-04-02T00:48:20.000Z,36.4
2023-04-02T00:54:24.962Z,36.4
2023-04-02T01:00:30.349Z,36.4
2023-04-02T01:06:35.926Z,36.4
2023-04-02T01:12:41.466Z,36.4
2023-04-02T01:18:46.647Z,36.4
2023-04-02T01:24:52.625Z,36.4
2023-04-02T01:30:58.028Z,36.4
2023-04-02T01:37:03.192Z,36.4
2023-04-02T01:43:09.319Z,36.4
2023-04-02T01:49:14.750Z,36.4
2023-04-02T01:55:20.056Z,36.4
2023-04-02T02:01:26.244Z,36.4
2023-04-02T02:07:32.038Z,36.4
2023-04-02T02:13:37.615Z,36.3
2023-04-02T02:19:43.181Z,36.4
2023-04-02T02:25:48.759Z,36.3
2023-04-02T02:31:54.740Z,36.3
2023-04-02T02:38:00.362Z,36.3
2023-04-02T02:44:06.126Z,36.3
2023-04-02T02:50:11.496Z,36.3
2023-04-02T02:56:17.492Z,36.3
2023-04-02T03:02:23.650Z,36.3
2023-04-02T03:08:29.781Z,36.3
2023-04-02T03:14:36.047Z,36.4
2023-04-02T03:20:41.604Z,36.3
2023-04-02T03:26:47.182Z,36.3
2023-04-02T03:32:53.118Z,36.3
2023-04-02T03:38:58.687Z,36.3
2023-04-02T03:45:04.066Z,36.3
2023-04-02T03:51:09.432Z,36.3
2023-04-02T03:57:14.797Z,36.3
2023-04-02T04:03:20.376Z,36.4
2023-04-02T04:09:25.835Z,36.3
2023-04-02T04:15:31.477Z,36.3
2023-04-02T04:21:36.572Z,36.3
2023-04-02T04:27:42.370Z,36.3
2023-04-02T04:33:47.917Z,36.3
2023-04-02T04:39:53.695Z,36.3
2023-04-02T04:45:59.545Z,36.3
2023-04-02T04:52:04.677Z,36.3
2023-04-02T04:58:10.046Z,36.3
2023-04-02T05:04:15.833Z,36.3
2023-04-02T05:10:21.815Z,36.3
2023-04-02T05:16:27.267Z,36.3
2023-04-02T05:22:33.511Z,36.3
2023-04-02T05:28:39.086Z,36.3
2023-04-02T05:34:44.479Z,36.2
2023-04-02T05:40:49.820Z,36.3
2023-04-02T05:46:55.228Z,36.1
2023-04-02T05:53:00.367Z,36.1
2023-04-02T05:59:06.204Z,36.1
2023-04-02T06:05:11.360Z,36.1
2023-04-02T06:11:16.922Z,36.1
2023-04-02T06:17:23.006Z,36
2023-04-02T06:23:29.017Z,36
2023-04-02T06:29:35.210Z,36
2023-04-02T06:35:41.639Z,36
2023-04-02T06:41:47.385Z,36
2023-04-02T06:47:53.211Z,36
2023-04-02T06:53:59.030Z,36.1
2023-04-02T07:00:04.573Z,36
2023-04-02T07:06:09.737Z,36
2023-04-02T07:12:14.726Z,36.1
2023-04-02T07:18:20.255Z,36.1
2023-04-02T07:24:25.764Z,36
2023-04-02T07:30:32.234Z,36.1
2023-04-02T07:36:37.722Z,36.1
2023-04-02T07:42:43.524Z,36.1
2023-04-02T07:48:49.296Z,36.1
2023-04-02T07:54:55.086Z,36.1
2023-04-02T08:01:00.884Z,36.1
2023-04-02T08:07:06.285Z,36.1
2023-04-02T08:13:11.605Z,36.1
2023-04-02T08:19:17.373Z,36.1
2023-04-02T08:25:23.359Z,36.2
2023-04-02T08:31:29.176Z,36.1
2023-04-02T08:37:34.961Z,36.2
2023-04-02T08:43:40.755Z,36.2
2023-04-02T08:49:46.464Z,36.2
2023-04-02T08:55:51.263Z,36.2
2023-04-02T09:01:57.456Z,36.2
2023-04-02T09:08:02.977Z,36.2
2023-04-02T09:14:08.563Z,36.2
2023-04-02T09:20:13.741Z,36.2
2023-04-02T09:26:19.287Z,36.3
2023-04-02T09:32:24.450Z,36.2
2023-04-02T09:38:30.271Z,36.3
2023-04-02T09:44:35.335Z,36.2
2023-04-02T09:50:40.754Z,36.2
2023-04-02T09:56:46.375Z,36.2
2023-04-02T10:02:51.981Z,36.3
2023-04-02T10:08:58.076Z,36.3
2023-04-02T10:15:03.460Z,36.3
2023-04-02T10:21:08.889Z,36.3
2023-04-02T10:27:14.200Z,36.3
2023-04-02T10:33:19.770Z,36.3
2023-04-02T10:39:25.945Z,36.3
2023-04-02T10:45:31.934Z,36.3
2023-04-02T10:51:37.486Z,36.2
2023-04-02T10:57:43.695Z,36.3
2023-04-02T11:03:49.382Z,36.2
2023-04-02T11:09:54.855Z,36.2
2023-04-02T11:16:01.050Z,36.2
2023-04-02T11:22:09.733Z,36.2
2023-04-02T11:28:14.676Z,36.2
2023-04-02T11:34:20.006Z,36.2
2023-04-02T11:40:25.824Z,36.2
2023-04-02T11:46:31.373Z,36.2
2023-04-02T11:52:36.563Z,36.2
2023-04-02T11:58:42.284Z,36.2
2023-04-02T12:04:47.969Z,36.2
2023-04-02T12:10:53.504Z,36.2
2023-04-02T12:16:59.481Z,36.2
2023-04-02T12:23:05.657Z,36.2
2023-04-02T12:29:10.954Z,36.3
2023-04-02T12:35:16.517Z,36.3
2023-04-02T12:41:21.957Z,36.2
2023-04-02T12:47:27.776Z,36.3
2023-04-02T12:53:33.301Z,36.4
2023-04-02T12:59:39.241Z,36.5
2023-04-02T13:05:45.024Z,36.6
2023-04-02T13:11:50.593Z,36.8
2023-04-02T13:17:55.960Z,36.7
2023-04-02T13:24:01.329Z,37
2023-04-02T13:30:07.001Z,37.1
2023-04-02T13:36:12.605Z,37.3
2023-04-02T13:42:17.895Z,37.3
2023-04-02T13:48:23.201Z,37.7
2023-04-02T13:54:28.780Z,37.5
2023-04-02T14:00:34.483Z,37.8
2023-04-02T14:06:40.321Z,37.7
2023-04-02T14:12:45.907Z,37.6
2023-04-02T14:18:51.728Z,38.1
2023-04-02T14:24:57.255Z,38
2023-04-02T14:31:02.478Z,38
2023-04-02T14:37:08.401Z,38.3
2023-04-02T14:43:14.380Z,38.3
2023-04-02T14:49:20.406Z,38.3
2023-04-02T14:55:26.355Z,38.4
2023-04-02T15:01:32.341Z,38.5
2023-04-02T15:07:38.099Z,38.5
2023-04-02T15:13:44.086Z,38.5
2023-04-02T15:19:49.447Z,38.2
2023-04-02T15:25:54.824Z,38.4
2023-04-02T15:32:00.727Z,38.2
2023-04-02T15:38:06.580Z,38.4
2023-04-02T15:44:12.411Z,38.6
2023-04-02T15:50:18.004Z,38.6
2023-04-02T15:56:26.770Z,38.7
2023-04-02T16:02:32.206Z,38.7
2023-04-02T16:08:37.931Z,38.6
2023-04-02T16:14:43.719Z,38.8
2023-04-02T16:20:49.301Z,38.7
2023-04-02T16:26:55.459Z,38.8
2023-04-02T16:33:01.945Z,38.7
2023-04-02T16:39:07.500Z,38.8
2023-04-02T16:45:12.453Z,38.5
2023-04-02T16:51:18.366Z,38.9
2023-04-02T16:57:24.103Z,39.1
2023-04-02T17:03:30.399Z,38.9
2023-04-02T17:09:36.157Z,38.9
2023-04-02T17:15:41.918Z,38.9
2023-04-02T17:21:47.881Z,38.6
2023-04-02T17:27:53.256Z,38.8
2023-04-02T17:33:59.081Z,38.7
2023-04-02T17:40:05.208Z,38.6
2023-04-02T17:46:11.007Z,38.7
2023-04-02T17:52:17.170Z,38.5
2023-04-02T17:58:22.529Z,38.6
2023-04-02T18:04:27.550Z,38.5
2023-04-02T18:10:32.673Z,38.5
2023-04-02T18:16:38.262Z,38.3
2023-04-02T18:22:43.395Z,38.2
2023-04-02T18:28:48.964Z,38.1
2023-04-02T18:34:54.940Z,38
2023-04-02T18:41:00.162Z,37.9
2023-04-02T18:47:05.896Z,37.8
2023-04-02T18:53:11.286Z,37.8
2023-04-02T18:59:17.229Z,37.6
2023-04-02T19:05:23.233Z,37.5
2023-04-02T19:11:29.485Z,37.4
2023-04-02T19:17:35.439Z,37.2
2023-04-02T19:23:41.167Z,37.1
2023-04-02T19:29:47.190Z,37
2023-04-02T19:35:52.804Z,36.8
2023-04-02T19:41:58.689Z,36.7
2023-04-02T19:48:04.348Z,36.6
2023-04-02T19:54:10.309Z,36.4
2023-04-02T20:00:16.087Z,36.3
2023-04-02T20:06:21.807Z,36.1
2023-04-02T20:12:27.238Z,36.2
2023-04-02T20:18:32.809Z,35.8
2023-04-02T20:24:38.178Z,35.6
2023-04-02T20:30:43.768Z,35.6
2023-04-02T20:36:49.524Z,35.4
2023-04-02T20:42:54.898Z,35.2
2023-04-02T20:49:00.072Z,35.1
2023-04-02T20:55:05.249Z,35
2023-04-02T21:01:11.407Z,34.8
2023-04-02T21:07:17.136Z,34.7
2023-04-02T21:13:22.910Z,34.5
2023-04-02T21:19:29.086Z,34.4
2023-04-02T21:25:34.837Z,34.3
2023-04-02T21:31:41.085Z,34.3
2023-04-02T21:37:48.934Z,34.1
2023-04-02T21:43:54.437Z,34
2023-04-02T21:49:59.617Z,34
2023-04-02T21:56:05.609Z,33.8
2023-04-02T22:02:10.946Z,34.1
2023-04-02T22:08:16.740Z,33.8
2023-04-02T22:14:22.151Z,33.9
2023-04-02T22:20:27.198Z,33.9
2023-04-02T22:26:33.323Z,33.9
2023-04-02T22:32:39.033Z,34.1
2023-04-02T22:38:44.806Z,34
2023-04-02T22:44:50.657Z,34.1
2023-04-02T22:50:56.070Z,34.1
2023-04-02T22:57:01.309Z,34.1
2023-04-02T23:03:06.560Z,34.1
2023-04-02T23:09:11.711Z,34.2
2023-04-02T23:15:17.213Z,34.1
2023-04-02T23:21:22.846Z,34.1
2023-04-02T23:27:27.953Z,34.1
2023-04-02T23:33:33.951Z,34.1
2023-04-02T23:39:39.298Z,34.2
2023-04-02T23:45:45.086Z,34.1
2023-04-02T23:51:50.493Z,34
2023-04-02T23:57:56.444Z,34.1
